Quebec, Canada
Current Conditions -  °F | °C
As of 11:00 AM on Tuesday 21 Oct 2014 (Local Time) from CYQB Reporting Station
Scattered Clouds Scattered Clouds  
Wind Chill: 39°   Ceiling: Unl
Heat Index: 45°   Visibility: 30mi
Dew Point: 34°   Wind: 12mph
Humidity: 66%   Direction: 70°ENE
Pressure: 30.1"   Gusts: NA
Location:  46.81°N, 71.22°W
Report Text: CYQB 211500Z 07010KT 30SM SCT080 SCT180 07/01 A3010 RMK AC3CI1 SLP197
Loading
Personal Weather Stations






























Interactive Weather Map New forecast layout! Learn more

10-Day Weather Forecast

Advertisements
Track Severe Weather on mobile